createdAt,value
2018-11-06T00:01:31.279Z,12.03
2018-11-06T00:04:03.825Z,12.04
2018-11-06T00:06:33.002Z,12.08
2018-11-06T00:09:01.964Z,11.98
2018-11-06T00:11:30.905Z,11.97
2018-11-06T00:13:59.842Z,11.82
2018-11-06T00:16:28.798Z,11.70
2018-11-06T00:18:57.724Z,11.67
2018-11-06T00:21:26.673Z,11.60
2018-11-06T00:23:55.610Z,11.63
2018-11-06T00:26:24.549Z,11.63
2018-11-06T00:28:53.480Z,11.59
2018-11-06T00:31:22.399Z,11.58
2018-11-06T00:33:51.336Z,11.57
2018-11-06T00:36:20.346Z,11.52
2018-11-06T00:38:49.298Z,11.53
2018-11-06T00:41:18.221Z,11.48
2018-11-06T00:43:47.185Z,11.55
2018-11-06T00:46:16.097Z,11.63
2018-11-06T00:48:45.033Z,11.56
2018-11-06T00:51:13.957Z,11.54
2018-11-06T00:53:42.902Z,11.57
2018-11-06T00:56:11.835Z,11.60
2018-11-06T00:58:40.782Z,11.60
2018-11-06T01:01:09.709Z,11.59
2018-11-06T01:03:44.025Z,11.57
2018-11-06T01:06:12.952Z,11.50
2018-11-06T01:08:41.904Z,11.48
2018-11-06T01:11:10.837Z,11.50
2018-11-06T01:13:39.861Z,11.47
2018-11-06T01:16:08.789Z,11.47
2018-11-06T01:18:37.727Z,11.47
2018-11-06T01:21:06.669Z,11.44
2018-11-06T01:23:35.617Z,11.37
2018-11-06T01:26:04.556Z,11.29
2018-11-06T01:28:33.484Z,11.19
2018-11-06T01:31:02.394Z,11.16
2018-11-06T01:33:31.357Z,11.13
2018-11-06T01:36:00.278Z,11.18
2018-11-06T01:38:29.246Z,11.17
2018-11-06T01:40:58.168Z,11.19
2018-11-06T01:43:27.114Z,11.16
2018-11-06T01:45:56.065Z,11.07
2018-11-06T01:48:25.007Z,11.01
2018-11-06T01:50:53.928Z,10.96
2018-11-06T01:53:22.886Z,10.93
2018-11-06T01:55:51.819Z,10.98
2018-11-06T01:58:20.781Z,10.98
2018-11-06T02:00:49.708Z,10.98
2018-11-06T02:03:18.646Z,11.01
2018-11-06T02:05:47.577Z,10.99
2018-11-06T02:08:16.522Z,10.97
2018-11-06T02:10:45.457Z,10.95
2018-11-06T02:13:14.445Z,10.95
2018-11-06T02:15:43.362Z,10.82
2018-11-06T02:18:12.302Z,10.76
2018-11-06T02:20:41.222Z,10.72
2018-11-06T02:23:10.169Z,10.63
2018-11-06T02:25:39.086Z,10.60
2018-11-06T02:28:08.015Z,10.49
2018-11-06T02:30:36.921Z,10.42
2018-11-06T02:33:05.887Z,10.48
2018-11-06T02:35:34.818Z,10.53
2018-11-06T02:38:03.765Z,10.51
2018-11-06T02:40:32.679Z,10.50
2018-11-06T02:43:01.665Z,10.56
2018-11-06T02:45:30.577Z,10.52
2018-11-06T02:47:59.519Z,10.54
2018-11-06T02:50:28.450Z,10.53
2018-11-06T02:52:57.397Z,10.45
2018-11-06T02:55:26.329Z,10.55
2018-11-06T02:57:55.255Z,10.46
2018-11-06T03:00:24.170Z,10.56
2018-11-06T03:02:53.078Z,10.46
2018-11-06T03:05:22.036Z,10.47
2018-11-06T03:07:50.971Z,10.56
2018-11-06T03:10:19.982Z,10.54
2018-11-06T03:12:48.840Z,10.56
2018-11-06T03:15:17.773Z,10.54
2018-11-06T03:17:46.696Z,10.55
2018-11-06T03:20:15.690Z,10.59
2018-11-06T03:22:45.103Z,10.58
2018-11-06T03:25:14.018Z,10.53
2018-11-06T03:27:42.929Z,10.54
2018-11-06T03:30:13.751Z,10.56
2018-11-06T03:32:42.685Z,10.56
2018-11-06T03:35:12.733Z,10.56
2018-11-06T03:37:41.637Z,10.54
2018-11-06T03:40:11.330Z,10.50
2018-11-06T03:42:41.039Z,10.45
2018-11-06T03:45:10.756Z,10.36
2018-11-06T03:47:39.665Z,10.30
2018-11-06T03:50:09.976Z,10.23
2018-11-06T03:52:38.853Z,10.19
2018-11-06T03:55:07.826Z,10.20
2018-11-06T03:57:36.747Z,10.19
2018-11-06T04:00:07.593Z,10.20
2018-11-06T04:02:36.510Z,10.20
2018-11-06T04:05:06.173Z,10.22
2018-11-06T04:07:35.073Z,10.22
2018-11-06T04:10:05.000Z,10.22
2018-11-06T04:12:33.908Z,10.19
2018-11-06T04:15:02.825Z,10.16
2018-11-06T04:17:31.736Z,10.15
2018-11-06T04:20:00.661Z,10.19
2018-11-06T04:22:29.576Z,10.19
2018-11-06T04:24:58.516Z,10.19
2018-11-06T04:27:27.484Z,10.20
2018-11-06T04:29:56.434Z,10.19
2018-11-06T04:32:25.362Z,10.18
2018-11-06T04:34:54.309Z,10.19
2018-11-06T04:37:23.293Z,10.15
2018-11-06T04:39:52.225Z,10.19
2018-11-06T04:42:21.142Z,10.13
2018-11-06T04:44:50.062Z,10.14
2018-11-06T04:47:18.965Z,10.16
2018-11-06T04:49:47.897Z,10.13
2018-11-06T04:52:16.869Z,10.12
2018-11-06T04:54:45.818Z,10.14
2018-11-06T04:57:15.462Z,10.09
2018-11-06T04:59:44.420Z,10.05
2018-11-06T05:02:13.381Z,10.07
2018-11-06T05:04:42.257Z,10.06
2018-11-06T05:07:11.198Z,10.02
2018-11-06T05:09:40.121Z,10.06
2018-11-06T05:12:09.029Z,10.01
2018-11-06T05:14:37.958Z,9.99
2018-11-06T05:17:06.993Z,9.97
2018-11-06T05:19:35.918Z,9.97
2018-11-06T05:22:05.225Z,9.96
2018-11-06T05:24:34.165Z,9.88
2018-11-06T05:27:03.729Z,9.83
2018-11-06T05:29:32.742Z,9.70
2018-11-06T05:32:01.722Z,9.76
2018-11-06T05:34:30.618Z,9.75
2018-11-06T05:36:59.542Z,9.74
2018-11-06T05:39:28.527Z,9.72
2018-11-06T05:41:57.398Z,9.68
2018-11-06T05:44:26.297Z,9.65
2018-11-06T05:46:55.213Z,9.63
2018-11-06T05:49:24.129Z,9.62
2018-11-06T05:51:53.069Z,9.50
2018-11-06T05:54:21.990Z,9.50
2018-11-06T05:56:50.943Z,9.60
2018-11-06T05:59:19.865Z,9.52
2018-11-06T06:01:48.784Z,9.62
2018-11-06T06:04:17.698Z,9.70
2018-11-06T06:06:46.618Z,9.78
2018-11-06T06:09:15.521Z,9.82
2018-11-06T06:11:44.453Z,9.85
2018-11-06T06:14:13.366Z,9.89
2018-11-06T06:16:42.305Z,9.90
2018-11-06T06:19:11.195Z,9.87
2018-11-06T06:21:40.134Z,9.90
2018-11-06T06:24:09.041Z,9.85
2018-11-06T06:26:37.957Z,9.81
2018-11-06T06:29:07.617Z,9.80
2018-11-06T06:31:36.565Z,9.69
2018-11-06T06:34:05.557Z,9.67
2018-11-06T06:36:34.560Z,9.67
2018-11-06T06:39:03.554Z,9.64
2018-11-06T06:41:32.488Z,9.67
2018-11-06T06:44:01.401Z,9.68
2018-11-06T06:46:30.381Z,9.74
2018-11-06T06:48:59.277Z,9.72
2018-11-06T06:51:28.209Z,9.77
2018-11-06T06:53:57.167Z,9.74
2018-11-06T06:56:26.146Z,9.74
2018-11-06T06:58:55.658Z,9.75
2018-11-06T07:01:24.589Z,9.75
2018-11-06T07:03:54.268Z,9.81
2018-11-06T07:06:23.967Z,9.81
2018-11-06T07:11:38.801Z,9.82
2018-11-06T07:14:08.007Z,9.75
2018-11-06T07:16:36.937Z,9.85
2018-11-06T07:19:05.934Z,9.87
2018-11-06T07:21:34.880Z,9.91
2018-11-06T07:24:03.873Z,9.97
2018-11-06T07:26:33.302Z,9.93
2018-11-06T07:29:02.206Z,9.95
2018-11-06T07:31:31.243Z,9.98
2018-11-06T07:34:00.137Z,9.94
2018-11-06T07:36:29.104Z,9.94
2018-11-06T07:38:58.049Z,9.96
2018-11-06T07:41:27.038Z,10.06
2018-11-06T07:43:55.961Z,10.14
2018-11-06T07:46:24.889Z,10.18
2018-11-06T07:48:53.836Z,10.24
2018-11-06T07:51:22.750Z,10.23
2018-11-06T07:53:51.867Z,10.29
2018-11-06T07:56:20.878Z,10.30
2018-11-06T07:58:49.725Z,10.28
2018-11-06T08:01:18.629Z,10.40
2018-11-06T08:03:47.603Z,10.43
2018-11-06T08:06:16.563Z,10.56
2018-11-06T08:08:45.446Z,10.64
2018-11-06T08:11:14.348Z,10.67
2018-11-06T08:13:43.269Z,10.75
2018-11-06T08:16:12.206Z,10.67
2018-11-06T08:18:41.149Z,10.73
2018-11-06T08:21:10.037Z,10.72
2018-11-06T08:23:38.994Z,10.82
2018-11-06T08:26:08.005Z,10.93
2018-11-06T08:28:36.889Z,11.00
2018-11-06T08:31:06.320Z,11.12
2018-11-06T08:33:34.789Z,11.21
2018-11-06T08:36:03.693Z,11.32
2018-11-06T08:38:32.622Z,11.40
2018-11-06T08:41:01.515Z,11.41
2018-11-06T08:43:30.470Z,11.44
2018-11-06T08:45:59.484Z,11.58
2018-11-06T08:48:28.458Z,11.39
2018-11-06T08:50:57.405Z,11.38
2018-11-06T08:53:26.322Z,11.51
2018-11-06T08:55:55.318Z,11.60
2018-11-06T08:58:24.271Z,11.65
2018-11-06T09:00:53.165Z,11.76
2018-11-06T09:03:22.086Z,11.79
2018-11-06T09:05:50.990Z,11.94
2018-11-06T09:08:19.953Z,11.99
2018-11-06T09:10:48.852Z,12.04
2018-11-06T09:13:17.813Z,12.14
2018-11-06T09:15:46.760Z,12.17
2018-11-06T09:18:15.694Z,12.22
2018-11-06T09:20:44.650Z,12.26
2018-11-06T09:23:13.617Z,12.36
2018-11-06T09:25:42.602Z,12.47
2018-11-06T09:28:11.565Z,12.55
2018-11-06T09:30:40.487Z,12.58
2018-11-06T09:33:09.398Z,12.65
2018-11-06T09:35:38.298Z,12.70
2018-11-06T09:38:07.293Z,12.77
2018-11-06T09:40:36.187Z,12.82
2018-11-06T09:43:05.513Z,12.90
2018-11-06T09:45:34.444Z,12.98
2018-11-06T09:48:03.348Z,13.10
2018-11-06T09:50:32.305Z,13.16
2018-11-06T09:53:01.261Z,13.28
2018-11-06T09:55:30.144Z,13.45
2018-11-06T09:57:59.145Z,13.47
2018-11-06T10:00:28.042Z,13.58
2018-11-06T10:02:57.014Z,13.71
2018-11-06T10:05:25.941Z,13.79
2018-11-06T10:07:54.872Z,13.84
2018-11-06T10:10:23.891Z,13.88
2018-11-06T10:12:52.797Z,13.95
2018-11-06T10:15:21.833Z,14.08
2018-11-06T10:17:51.479Z,14.18
2018-11-06T10:20:21.170Z,14.23
2018-11-06T10:22:50.189Z,14.33
2018-11-06T10:25:19.110Z,14.43
2018-11-06T10:27:48.048Z,14.61
2018-11-06T10:30:18.277Z,14.82
2018-11-06T10:32:47.348Z,15.02
2018-11-06T10:35:16.297Z,15.12
2018-11-06T10:37:45.236Z,15.25
2018-11-06T10:40:15.818Z,15.40
2018-11-06T10:42:45.367Z,15.52
2018-11-06T10:45:14.374Z,15.63
2018-11-06T10:47:43.329Z,15.76
2018-11-06T10:50:13.190Z,15.84
2018-11-06T10:52:42.546Z,15.88
2018-11-06T10:55:12.537Z,16.02
2018-11-06T10:57:42.091Z,16.05
2018-11-06T11:00:17.266Z,16.10
2018-11-06T11:02:51.318Z,16.08
2018-11-06T11:05:22.077Z,16.08
2018-11-06T11:07:51.095Z,16.13
2018-11-06T11:10:20.069Z,16.20
2018-11-06T11:12:49.059Z,16.24
2018-11-06T11:15:18.015Z,16.34
2018-11-06T11:17:46.959Z,16.46
2018-11-06T11:20:16.033Z,16.48
2018-11-06T11:22:44.870Z,16.55
2018-11-06T11:25:16.408Z,16.56
2018-11-06T11:27:46.257Z,16.63
2018-11-06T11:30:16.085Z,16.64
2018-11-06T11:32:46.603Z,16.77
2018-11-06T11:35:15.790Z,16.83
2018-11-06T11:37:44.854Z,16.95
2018-11-06T11:40:14.842Z,17.02
2018-11-06T11:42:44.066Z,17.09
2018-11-06T11:45:13.982Z,17.23
2018-11-06T11:47:43.645Z,17.28
2018-11-06T11:50:13.838Z,17.19
2018-11-06T11:52:42.814Z,17.30
2018-11-06T11:55:11.905Z,17.39
2018-11-06T11:57:41.121Z,17.46
2018-11-06T12:00:13.088Z,17.51
2018-11-06T12:02:42.185Z,17.54
2018-11-06T12:05:11.696Z,17.61
2018-11-06T12:07:40.684Z,17.66
2018-11-06T12:10:10.818Z,17.74
2018-11-06T12:12:39.758Z,17.79
2018-11-06T12:15:11.869Z,17.81
2018-11-06T12:17:41.469Z,17.87
2018-11-06T12:20:10.751Z,17.94
2018-11-06T12:22:40.075Z,18.01
2018-11-06T12:25:09.482Z,18.09
2018-11-06T12:27:38.461Z,18.15
2018-11-06T12:30:09.403Z,18.19
2018-11-06T12:32:38.853Z,18.15
2018-11-06T12:35:08.310Z,18.19
2018-11-06T12:37:37.441Z,18.27
2018-11-06T12:40:07.233Z,18.38
2018-11-06T12:42:36.574Z,18.46
2018-11-06T12:45:07.149Z,18.55
2018-11-06T12:47:36.217Z,18.61
2018-11-06T12:50:05.924Z,18.66
2018-11-06T12:52:34.810Z,18.69
2018-11-06T12:55:04.022Z,18.70
2018-11-06T12:57:33.043Z,18.66
2018-11-06T13:00:01.987Z,18.67
2018-11-06T13:02:30.925Z,18.72
2018-11-06T13:04:59.903Z,18.60
2018-11-06T13:07:28.849Z,18.52
2018-11-06T13:09:57.906Z,18.52
2018-11-06T13:12:27.809Z,18.51
2018-11-06T13:14:57.238Z,18.47
2018-11-06T13:17:25.890Z,18.52
2018-11-06T13:19:54.845Z,18.54
2018-11-06T13:22:23.800Z,18.51
2018-11-06T13:24:52.761Z,18.52
2018-11-06T13:27:21.720Z,18.50
2018-11-06T13:29:50.682Z,18.53
2018-11-06T13:32:19.703Z,18.50
2018-11-06T13:34:48.654Z,18.54
2018-11-06T13:37:17.661Z,18.44
2018-11-06T13:39:46.601Z,18.36
2018-11-06T13:42:15.626Z,18.40
2018-11-06T13:44:44.724Z,18.41
2018-11-06T13:47:13.672Z,18.42
2018-11-06T13:49:42.618Z,18.41
2018-11-06T13:52:11.630Z,18.38
2018-11-06T13:54:40.543Z,18.39
2018-11-06T13:57:09.630Z,18.37
2018-11-06T13:59:38.701Z,18.42
2018-11-06T14:02:07.658Z,18.30
2018-11-06T14:04:36.601Z,18.32
2018-11-06T14:07:05.649Z,18.32
2018-11-06T14:09:34.585Z,18.23
2018-11-06T14:12:03.574Z,18.21
2018-11-06T14:14:32.512Z,18.13
2018-11-06T14:17:01.462Z,18.12
2018-11-06T14:19:30.559Z,18.13
2018-11-06T14:21:59.580Z,18.20
2018-11-06T14:24:28.580Z,18.17
2018-11-06T14:26:57.584Z,18.13
2018-11-06T14:29:26.626Z,18.13
2018-11-06T14:31:55.720Z,18.07
2018-11-06T14:34:24.701Z,18.03
2018-11-06T14:36:53.637Z,17.97
2018-11-06T14:39:22.875Z,17.97
2018-11-06T14:41:51.873Z,17.85
2018-11-06T14:44:20.821Z,17.73
2018-11-06T14:46:49.990Z,17.72
2018-11-06T14:49:19.483Z,17.69
2018-11-06T14:51:48.456Z,17.62
2018-11-06T14:54:17.366Z,17.59
2018-11-06T14:56:46.331Z,17.57
2018-11-06T14:59:15.930Z,17.51
2018-11-06T15:01:44.893Z,17.51
2018-11-06T15:04:13.911Z,17.52
2018-11-06T15:06:42.992Z,17.49
2018-11-06T15:09:11.934Z,17.49
2018-11-06T15:11:41.097Z,17.45
2018-11-06T15:14:10.046Z,17.43
2018-11-06T15:16:40.097Z,17.40
2018-11-06T15:19:09.049Z,17.35
2018-11-06T15:21:38.307Z,17.24
2018-11-06T15:24:07.288Z,17.15
2018-11-06T15:26:36.346Z,17.08
2018-11-06T15:29:05.693Z,16.96
2018-11-06T15:31:34.621Z,16.88
2018-11-06T15:34:03.678Z,16.91
2018-11-06T15:36:33.319Z,16.87
2018-11-06T15:39:02.263Z,16.86
2018-11-06T15:41:31.337Z,16.89
2018-11-06T15:44:00.213Z,16.91
2018-11-06T15:46:29.162Z,16.83
2018-11-06T15:48:58.186Z,16.80
2018-11-06T15:51:27.080Z,16.73
2018-11-06T15:53:55.999Z,16.72
2018-11-06T15:56:25.992Z,16.84
2018-11-06T15:58:55.396Z,16.81
2018-11-06T16:01:25.821Z,16.99
2018-11-06T16:03:54.742Z,16.92
2018-11-06T16:06:23.882Z,16.82
2018-11-06T16:08:52.818Z,16.86
2018-11-06T16:11:21.917Z,16.80
2018-11-06T16:13:50.874Z,16.74
2018-11-06T16:16:19.773Z,16.71
2018-11-06T16:18:48.697Z,16.64
2018-11-06T16:21:17.601Z,16.58
2018-11-06T16:23:46.542Z,16.45
2018-11-06T16:26:15.457Z,16.41
2018-11-06T16:28:44.397Z,16.40
2018-11-06T16:31:13.321Z,16.39
2018-11-06T16:33:42.258Z,16.39
2018-11-06T16:36:11.185Z,16.37
2018-11-06T16:38:40.146Z,16.46
2018-11-06T16:41:09.066Z,16.45
2018-11-06T16:43:38.011Z,16.34
2018-11-06T16:46:07.007Z,16.24
2018-11-06T16:48:36.686Z,16.24
2018-11-06T16:51:06.114Z,16.09
2018-11-06T16:53:35.112Z,16.11
2018-11-06T16:56:04.057Z,16.04
2018-11-06T16:58:32.987Z,15.92
2018-11-06T17:01:02.081Z,15.88
2018-11-06T17:03:30.881Z,15.80
2018-11-06T17:05:59.797Z,15.78
2018-11-06T17:08:28.729Z,15.77
2018-11-06T17:10:57.644Z,15.71
2018-11-06T17:13:26.581Z,15.62
2018-11-06T17:15:55.516Z,15.69
2018-11-06T17:18:24.449Z,15.75
2018-11-06T17:20:53.392Z,15.68
2018-11-06T17:23:22.338Z,15.72
2018-11-06T17:25:51.271Z,15.69
2018-11-06T17:28:20.202Z,15.71
2018-11-06T17:30:49.138Z,15.58
2018-11-06T17:33:18.072Z,15.58
2018-11-06T17:35:47.290Z,15.61
2018-11-06T17:38:16.372Z,15.65
2018-11-06T17:40:45.285Z,15.62
2018-11-06T17:43:14.225Z,15.62
2018-11-06T17:45:43.189Z,15.58
2018-11-06T17:48:12.145Z,15.61
2018-11-06T17:50:41.073Z,15.51
2018-11-06T17:53:10.055Z,15.47
2018-11-06T17:55:38.980Z,15.40
2018-11-06T17:58:07.921Z,15.32
2018-11-06T18:00:36.982Z,15.31
2018-11-06T18:03:06.185Z,15.21
2018-11-06T18:05:35.124Z,15.20
2018-11-06T18:08:04.088Z,15.31
2018-11-06T18:10:33.078Z,15.25
2018-11-06T18:13:01.999Z,15.16
2018-11-06T18:15:30.925Z,15.24
2018-11-06T18:17:59.908Z,15.28
2018-11-06T18:20:28.897Z,15.13
2018-11-06T18:22:57.835Z,15.15
2018-11-06T18:25:27.023Z,15.13
2018-11-06T18:27:55.909Z,15.07
2018-11-06T18:30:24.931Z,15.05
2018-11-06T18:32:53.838Z,15.06
2018-11-06T18:35:22.836Z,14.96
2018-11-06T18:37:51.814Z,14.98
2018-11-06T18:40:21.027Z,15.02
2018-11-06T18:42:50.850Z,15.01
2018-11-06T18:45:20.145Z,15.02
2018-11-06T18:47:49.131Z,15.03
2018-11-06T18:50:18.827Z,15.00
2018-11-06T18:52:48.817Z,14.97
2018-11-06T18:55:17.962Z,14.90
2018-11-06T18:57:46.897Z,14.95
2018-11-06T19:00:17.786Z,14.97
2018-11-06T19:02:47.630Z,15.03
2018-11-06T19:05:17.055Z,15.12
2018-11-06T19:07:46.103Z,15.13
2018-11-06T19:10:15.804Z,15.14
2018-11-06T19:12:44.945Z,15.13
2018-11-06T19:15:16.223Z,15.12
2018-11-06T19:17:45.809Z,15.14
2018-11-06T19:20:15.126Z,15.09
2018-11-06T19:22:44.133Z,15.05
2018-11-06T19:25:13.762Z,14.98
2018-11-06T19:27:42.757Z,14.95
2018-11-06T19:30:13.533Z,15.01
2018-11-06T19:32:42.434Z,15.02
2018-11-06T19:35:11.373Z,14.99
2018-11-06T19:37:40.906Z,15.00
2018-11-06T19:40:11.637Z,15.02
2018-11-06T19:42:41.262Z,14.93
2018-11-06T19:45:10.867Z,14.78
2018-11-06T19:47:39.776Z,14.85
2018-11-06T19:50:10.589Z,14.82
2018-11-06T19:52:39.781Z,14.80
2018-11-06T19:55:09.719Z,14.71
2018-11-06T19:57:38.645Z,14.62
2018-11-06T20:00:12.827Z,14.46
2018-11-06T20:02:42.797Z,14.46
2018-11-06T20:05:11.967Z,14.38
2018-11-06T20:07:42.013Z,14.47
2018-11-06T20:10:13.686Z,14.45
2018-11-06T20:12:43.892Z,14.47
2018-11-06T20:15:13.823Z,14.56
2018-11-06T20:17:43.320Z,14.67
2018-11-06T20:20:15.687Z,14.77
2018-11-06T20:22:44.991Z,14.75
2018-11-06T20:25:14.206Z,14.73
2018-11-06T20:27:43.566Z,14.69
2018-11-06T20:30:14.960Z,14.66
2018-11-06T20:32:43.892Z,14.59
2018-11-06T20:35:13.181Z,14.63
2018-11-06T20:37:42.133Z,14.59
2018-11-06T20:40:13.398Z,14.64
2018-11-06T20:42:43.077Z,14.54
2018-11-06T20:45:13.301Z,14.54
2018-11-06T20:47:42.673Z,14.44
2018-11-06T20:50:17.037Z,14.38
2018-11-06T20:52:46.298Z,14.29
2018-11-06T20:55:15.979Z,14.25
2018-11-06T20:57:44.944Z,14.21
2018-11-06T21:00:20.238Z,14.31
2018-11-06T21:02:51.365Z,14.35
2018-11-06T21:05:20.343Z,14.29
2018-11-06T21:07:49.479Z,14.34
2018-11-06T21:10:19.706Z,14.40
2018-11-06T21:12:48.650Z,14.45
2018-11-06T21:15:17.670Z,14.41
2018-11-06T21:17:46.685Z,14.40
2018-11-06T21:20:16.563Z,14.29
2018-11-06T21:22:45.477Z,14.23
2018-11-06T21:25:15.079Z,14.07
2018-11-06T21:27:44.260Z,13.99
